sensor_id;sensor_type;location;lat;lon;timestamp;P1;durP1;ratioP1;P2;durP2;ratioP2
3337;SDS011;1682;49.286;10.788;2023-07-28T00:01:58;6.03;;;4.97;;
3337;SDS011;1682;49.286;10.788;2023-07-28T00:04:45;4.53;;;4.13;;
3337;SDS011;1682;49.286;10.788;2023-07-28T00:07:34;6.33;;;4.17;;
3337;SDS011;1682;49.286;10.788;2023-07-28T00:10:22;4.43;;;4.13;;
3337;SDS011;1682;49.286;10.788;2023-07-28T00:13:09;4.47;;;3.87;;
3337;SDS011;1682;49.286;10.788;2023-07-28T00:15:57;4.23;;;3.80;;
3337;SDS011;1682;49.286;10.788;2023-07-28T00:18:44;4.23;;;3.83;;
3337;SDS011;1682;49.286;10.788;2023-07-28T00:21:32;4.10;;;3.80;;
3337;SDS011;1682;49.286;10.788;2023-07-28T00:24:21;8.90;;;8.00;;
3337;SDS011;1682;49.286;10.788;2023-07-28T00:27:08;5.60;;;4.50;;
3337;SDS011;1682;49.286;10.788;2023-07-28T00:29:58;3.83;;;3.53;;
3337;SDS011;1682;49.286;10.788;2023-07-28T00:32:45;5.90;;;4.80;;
3337;SDS011;1682;49.286;10.788;2023-07-28T00:35:33;10.13;;;7.03;;
3337;SDS011;1682;49.286;10.788;2023-07-28T00:38:20;5.23;;;4.40;;
3337;SDS011;1682;49.286;10.788;2023-07-28T00:41:09;4.47;;;4.00;;
3337;SDS011;1682;49.286;10.788;2023-07-28T00:43:57;4.90;;;4.30;;
3337;SDS011;1682;49.286;10.788;2023-07-28T00:46:44;9.40;;;7.47;;
3337;SDS011;1682;49.286;10.788;2023-07-28T00:49:32;13.57;;;8.13;;
3337;SDS011;1682;49.286;10.788;2023-07-28T00:52:19;5.23;;;4.50;;
3337;SDS011;1682;49.286;10.788;2023-07-28T00:55:07;5.17;;;4.73;;
3337;SDS011;1682;49.286;10.788;2023-07-28T00:57:56;8.20;;;5.63;;
3337;SDS011;1682;49.286;10.788;2023-07-28T01:00:43;6.07;;;5.47;;
3337;SDS011;1682;49.286;10.788;2023-07-28T01:03:32;5.90;;;4.67;;
3337;SDS011;1682;49.286;10.788;2023-07-28T01:06:20;5.87;;;4.93;;
3337;SDS011;1682;49.286;10.788;2023-07-28T01:09:09;5.60;;;5.10;;
3337;SDS011;1682;49.286;10.788;2023-07-28T01:11:59;9.60;;;6.27;;
3337;SDS011;1682;49.286;10.788;2023-07-28T01:14:48;6.20;;;4.90;;
3337;SDS011;1682;49.286;10.788;2023-07-28T01:17:36;5.53;;;4.83;;
3337;SDS011;1682;49.286;10.788;2023-07-28T01:20:24;5.97;;;5.10;;
3337;SDS011;1682;49.286;10.788;2023-07-28T01:23:18;5.23;;;4.83;;
3337;SDS011;1682;49.286;10.788;2023-07-28T01:26:08;13.10;;;11.33;;
3337;SDS011;1682;49.286;10.788;2023-07-28T01:28:57;9.47;;;7.93;;
3337;SDS011;1682;49.286;10.788;2023-07-28T01:31:45;5.40;;;4.90;;
3337;SDS011;1682;49.286;10.788;2023-07-28T01:34:33;7.13;;;6.43;;
3337;SDS011;1682;49.286;10.788;2023-07-28T01:37:21;6.10;;;5.50;;
3337;SDS011;1682;49.286;10.788;2023-07-28T01:40:09;5.63;;;5.13;;
3337;SDS011;1682;49.286;10.788;2023-07-28T01:42:56;5.73;;;5.23;;
3337;SDS011;1682;49.286;10.788;2023-07-28T01:45:45;5.93;;;5.37;;
3337;SDS011;1682;49.286;10.788;2023-07-28T01:48:33;9.37;;;5.33;;
3337;SDS011;1682;49.286;10.788;2023-07-28T01:51:20;6.07;;;5.33;;
3337;SDS011;1682;49.286;10.788;2023-07-28T01:54:08;6.17;;;5.53;;
3337;SDS011;1682;49.286;10.788;2023-07-28T01:56:55;5.53;;;5.03;;
3337;SDS011;1682;49.286;10.788;2023-07-28T01:59:43;6.70;;;6.10;;
3337;SDS011;1682;49.286;10.788;2023-07-28T02:02:31;6.97;;;5.37;;
3337;SDS011;1682;49.286;10.788;2023-07-28T02:05:19;6.77;;;6.07;;
3337;SDS011;1682;49.286;10.788;2023-07-28T02:08:07;7.50;;;6.70;;
3337;SDS011;1682;49.286;10.788;2023-07-28T02:10:54;6.13;;;5.20;;
3337;SDS011;1682;49.286;10.788;2023-07-28T02:13:42;10.87;;;6.87;;
3337;SDS011;1682;49.286;10.788;2023-07-28T02:16:29;6.97;;;6.20;;
3337;SDS011;1682;49.286;10.788;2023-07-28T02:19:19;6.00;;;5.40;;
3337;SDS011;1682;49.286;10.788;2023-07-28T02:22:06;8.33;;;5.90;;
3337;SDS011;1682;49.286;10.788;2023-07-28T02:24:53;5.43;;;5.00;;
3337;SDS011;1682;49.286;10.788;2023-07-28T02:27:41;6.63;;;5.97;;
3337;SDS011;1682;49.286;10.788;2023-07-28T02:30:28;8.13;;;5.33;;
3337;SDS011;1682;49.286;10.788;2023-07-28T02:33:16;7.30;;;5.23;;
3337;SDS011;1682;49.286;10.788;2023-07-28T02:36:05;10.83;;;7.20;;
3337;SDS011;1682;49.286;10.788;2023-07-28T02:38:52;7.60;;;6.17;;
3337;SDS011;1682;49.286;10.788;2023-07-28T02:41:40;7.63;;;5.20;;
3337;SDS011;1682;49.286;10.788;2023-07-28T02:44:27;7.30;;;5.50;;
3337;SDS011;1682;49.286;10.788;2023-07-28T02:47:15;6.50;;;6.00;;
3337;SDS011;1682;49.286;10.788;2023-07-28T02:50:03;4.97;;;4.57;;
3337;SDS011;1682;49.286;10.788;2023-07-28T02:52:51;5.10;;;4.63;;
3337;SDS011;1682;49.286;10.788;2023-07-28T02:55:40;6.50;;;5.90;;
3337;SDS011;1682;49.286;10.788;2023-07-28T02:58:28;6.73;;;6.00;;
3337;SDS011;1682;49.286;10.788;2023-07-28T03:01:15;5.90;;;5.40;;
3337;SDS011;1682;49.286;10.788;2023-07-28T03:04:03;7.17;;;6.47;;
3337;SDS011;1682;49.286;10.788;2023-07-28T03:06:51;6.07;;;5.20;;
3337;SDS011;1682;49.286;10.788;2023-07-28T03:09:40;5.80;;;5.30;;
3337;SDS011;1682;49.286;10.788;2023-07-28T03:12:28;11.23;;;6.67;;
3337;SDS011;1682;49.286;10.788;2023-07-28T03:15:15;7.00;;;5.63;;
3337;SDS011;1682;49.286;10.788;2023-07-28T03:18:03;7.00;;;6.30;;
3337;SDS011;1682;49.286;10.788;2023-07-28T03:20:50;5.80;;;5.30;;
3337;SDS011;1682;49.286;10.788;2023-07-28T03:23:38;5.53;;;5.03;;
3337;SDS011;1682;49.286;10.788;2023-07-28T03:26:27;6.27;;;5.63;;
3337;SDS011;1682;49.286;10.788;2023-07-28T03:29:14;6.37;;;5.77;;
3337;SDS011;1682;49.286;10.788;2023-07-28T03:32:02;7.03;;;5.53;;
3337;SDS011;1682;49.286;10.788;2023-07-28T03:34:49;7.13;;;6.43;;
3337;SDS011;1682;49.286;10.788;2023-07-28T03:37:37;8.90;;;7.33;;
3337;SDS011;1682;49.286;10.788;2023-07-28T03:40:24;9.20;;;5.63;;
3337;SDS011;1682;49.286;10.788;2023-07-28T03:43:13;6.20;;;5.00;;
3337;SDS011;1682;49.286;10.788;2023-07-28T03:46:00;5.50;;;5.00;;
3337;SDS011;1682;49.286;10.788;2023-07-28T03:48:48;6.10;;;5.60;;
3337;SDS011;1682;49.286;10.788;2023-07-28T03:51:36;5.80;;;5.20;;
3337;SDS011;1682;49.286;10.788;2023-07-28T03:54:23;6.50;;;5.90;;
3337;SDS011;1682;49.286;10.788;2023-07-28T03:57:10;5.57;;;4.90;;
3337;SDS011;1682;49.286;10.788;2023-07-28T03:59:59;6.40;;;5.80;;
3337;SDS011;1682;49.286;10.788;2023-07-28T04:02:47;6.10;;;5.60;;
3337;SDS011;1682;49.286;10.788;2023-07-28T04:05:35;5.60;;;5.07;;
3337;SDS011;1682;49.286;10.788;2023-07-28T04:08:23;5.20;;;4.70;;
3337;SDS011;1682;49.286;10.788;2023-07-28T04:11:11;6.20;;;5.60;;
3337;SDS011;1682;49.286;10.788;2023-07-28T04:13:58;5.63;;;5.13;;
3337;SDS011;1682;49.286;10.788;2023-07-28T04:16:47;9.47;;;5.80;;
3337;SDS011;1682;49.286;10.788;2023-07-28T04:19:34;6.60;;;5.30;;
3337;SDS011;1682;49.286;10.788;2023-07-28T04:22:22;6.17;;;5.67;;
3337;SDS011;1682;49.286;10.788;2023-07-28T04:25:09;10.10;;;5.90;;
3337;SDS011;1682;49.286;10.788;2023-07-28T04:27:57;6.07;;;5.57;;
3337;SDS011;1682;49.286;10.788;2023-07-28T04:30:44;6.30;;;5.70;;
3337;SDS011;1682;49.286;10.788;2023-07-28T04:33:33;6.60;;;5.97;;
3337;SDS011;1682;49.286;10.788;2023-07-28T04:36:21;6.67;;;6.07;;
3337;SDS011;1682;49.286;10.788;2023-07-28T04:39:08;5.87;;;5.37;;
3337;SDS011;1682;49.286;10.788;2023-07-28T04:41:56;6.97;;;6.30;;
3337;SDS011;1682;49.286;10.788;2023-07-28T04:44:43;7.83;;;6.17;;
3337;SDS011;1682;49.286;10.788;2023-07-28T04:47:31;6.23;;;5.63;;
3337;SDS011;1682;49.286;10.788;2023-07-28T04:50:20;10.10;;;7.23;;
3337;SDS011;1682;49.286;10.788;2023-07-28T04:53:08;60.37;;;37.70;;
3337;SDS011;1682;49.286;10.788;2023-07-28T04:55:55;91.20;;;58.50;;
3337;SDS011;1682;49.286;10.788;2023-07-28T04:58:43;22.47;;;20.30;;
3337;SDS011;1682;49.286;10.788;2023-07-28T05:01:30;11.73;;;10.63;;
3337;SDS011;1682;49.286;10.788;2023-07-28T05:04:18;10.37;;;9.40;;
3337;SDS011;1682;49.286;10.788;2023-07-28T05:07:07;10.50;;;9.60;;
3337;SDS011;1682;49.286;10.788;2023-07-28T05:09:54;10.30;;;9.50;;
3337;SDS011;1682;49.286;10.788;2023-07-28T05:12:42;9.00;;;8.10;;
3337;SDS011;1682;49.286;10.788;2023-07-28T05:15:29;11.83;;;10.73;;
3337;SDS011;1682;49.286;10.788;2023-07-28T05:18:16;10.20;;;8.40;;
3337;SDS011;1682;49.286;10.788;2023-07-28T05:21:04;8.00;;;7.30;;
3337;SDS011;1682;49.286;10.788;2023-07-28T05:23:53;10.20;;;8.30;;
3337;SDS011;1682;49.286;10.788;2023-07-28T05:26:40;9.30;;;8.30;;
3337;SDS011;1682;49.286;10.788;2023-07-28T05:29:28;12.87;;;11.53;;
3337;SDS011;1682;49.286;10.788;2023-07-28T05:32:15;11.33;;;10.37;;
3337;SDS011;1682;49.286;10.788;2023-07-28T05:35:03;10.03;;;9.23;;
3337;SDS011;1682;49.286;10.788;2023-07-28T05:37:51;18.83;;;14.50;;
3337;SDS011;1682;49.286;10.788;2023-07-28T05:40:41;12.83;;;11.50;;
3337;SDS011;1682;49.286;10.788;2023-07-28T05:43:28;12.10;;;10.20;;
3337;SDS011;1682;49.286;10.788;2023-07-28T05:46:16;10.70;;;9.63;;
3337;SDS011;1682;49.286;10.788;2023-07-28T05:49:04;11.03;;;8.90;;
3337;SDS011;1682;49.286;10.788;2023-07-28T05:51:51;9.27;;;8.23;;
3337;SDS011;1682;49.286;10.788;2023-07-28T05:54:39;8.83;;;8.00;;
3337;SDS011;1682;49.286;10.788;2023-07-28T05:57:27;10.53;;;8.80;;
3337;SDS011;1682;49.286;10.788;2023-07-28T06:00:15;9.90;;;7.40;;
3337;SDS011;1682;49.286;10.788;2023-07-28T06:03:03;7.90;;;6.63;;
3337;SDS011;1682;49.286;10.788;2023-07-28T06:05:51;11.53;;;8.10;;
3337;SDS011;1682;49.286;10.788;2023-07-28T06:08:39;8.67;;;7.80;;
3337;SDS011;1682;49.286;10.788;2023-07-28T06:11:26;10.27;;;8.17;;
3337;SDS011;1682;49.286;10.788;2023-07-28T06:14:15;8.20;;;7.07;;
3337;SDS011;1682;49.286;10.788;2023-07-28T06:17:03;9.73;;;8.73;;
3337;SDS011;1682;49.286;10.788;2023-07-28T06:19:51;7.70;;;6.50;;
3337;SDS011;1682;49.286;10.788;2023-07-28T06:22:39;8.73;;;6.50;;
3337;SDS011;1682;49.286;10.788;2023-07-28T06:25:26;7.73;;;7.10;;
3337;SDS011;1682;49.286;10.788;2023-07-28T06:28:14;6.37;;;5.80;;
3337;SDS011;1682;49.286;10.788;2023-07-28T06:31:03;7.27;;;6.67;;
3337;SDS011;1682;49.286;10.788;2023-07-28T06:33:51;6.70;;;5.70;;
3337;SDS011;1682;49.286;10.788;2023-07-28T06:36:38;6.07;;;4.33;;
3337;SDS011;1682;49.286;10.788;2023-07-28T06:39:26;5.90;;;5.40;;
3337;SDS011;1682;49.286;10.788;2023-07-28T06:42:15;8.03;;;6.43;;
3337;SDS011;1682;49.286;10.788;2023-07-28T06:45:09;5.73;;;5.27;;
3337;SDS011;1682;49.286;10.788;2023-07-28T06:47:58;6.30;;;5.70;;
3337;SDS011;1682;49.286;10.788;2023-07-28T06:50:45;6.07;;;5.37;;
3337;SDS011;1682;49.286;10.788;2023-07-28T06:53:33;6.27;;;5.17;;
3337;SDS011;1682;49.286;10.788;2023-07-28T06:56:20;5.67;;;5.17;;
3337;SDS011;1682;49.286;10.788;2023-07-28T06:59:08;6.40;;;5.80;;
3337;SDS011;1682;49.286;10.788;2023-07-28T07:01:55;5.63;;;5.23;;
3337;SDS011;1682;49.286;10.788;2023-07-28T07:04:44;6.67;;;5.93;;
3337;SDS011;1682;49.286;10.788;2023-07-28T07:07:32;5.90;;;5.37;;
3337;SDS011;1682;49.286;10.788;2023-07-28T07:10:20;5.43;;;4.93;;
3337;SDS011;1682;49.286;10.788;2023-07-28T07:13:07;6.10;;;5.60;;
3337;SDS011;1682;49.286;10.788;2023-07-28T07:15:56;6.17;;;5.57;;
3337;SDS011;1682;49.286;10.788;2023-07-28T07:18:44;5.10;;;4.70;;
3337;SDS011;1682;49.286;10.788;2023-07-28T07:21:33;5.47;;;4.97;;
3337;SDS011;1682;49.286;10.788;2023-07-28T07:24:20;5.90;;;5.37;;
3337;SDS011;1682;49.286;10.788;2023-07-28T07:27:08;5.40;;;4.90;;
3337;SDS011;1682;49.286;10.788;2023-07-28T07:29:56;4.60;;;4.30;;
3337;SDS011;1682;49.286;10.788;2023-07-28T07:32:44;4.93;;;4.33;;
3337;SDS011;1682;49.286;10.788;2023-07-28T07:35:35;5.97;;;5.37;;
3337;SDS011;1682;49.286;10.788;2023-07-28T07:38:24;5.13;;;4.63;;
3337;SDS011;1682;49.286;10.788;2023-07-28T07:41:11;5.77;;;5.17;;
3337;SDS011;1682;49.286;10.788;2023-07-28T07:44:01;4.37;;;4.07;;
3337;SDS011;1682;49.286;10.788;2023-07-28T07:46:49;7.33;;;5.13;;
3337;SDS011;1682;49.286;10.788;2023-07-28T07:49:37;5.75;;;5.25;;
3337;SDS011;1682;49.286;10.788;2023-07-28T07:52:24;7.60;;;5.00;;
3337;SDS011;1682;49.286;10.788;2023-07-28T07:55:13;5.47;;;4.93;;
3337;SDS011;1682;49.286;10.788;2023-07-28T07:58:01;6.63;;;5.60;;
3337;SDS011;1682;49.286;10.788;2023-07-28T08:00:49;5.27;;;4.77;;
3337;SDS011;1682;49.286;10.788;2023-07-28T08:03:36;5.17;;;4.77;;
3337;SDS011;1682;49.286;10.788;2023-07-28T08:06:24;5.33;;;4.90;;
3337;SDS011;1682;49.286;10.788;2023-07-28T08:09:12;6.17;;;5.57;;
3337;SDS011;1682;49.286;10.788;2023-07-28T08:12:01;6.83;;;6.10;;
3337;SDS011;1682;49.286;10.788;2023-07-28T08:14:48;4.47;;;4.10;;
3337;SDS011;1682;49.286;10.788;2023-07-28T08:17:36;5.40;;;4.90;;
3337;SDS011;1682;49.286;10.788;2023-07-28T08:20:23;7.17;;;5.17;;
3337;SDS011;1682;49.286;10.788;2023-07-28T08:23:12;5.50;;;5.10;;
3337;SDS011;1682;49.286;10.788;2023-07-28T08:25:59;4.70;;;3.93;;
3337;SDS011;1682;49.286;10.788;2023-07-28T08:28:48;4.43;;;4.13;;
3337;SDS011;1682;49.286;10.788;2023-07-28T08:31:35;4.40;;;3.97;;
3337;SDS011;1682;49.286;10.788;2023-07-28T08:34:23;4.73;;;4.33;;
3337;SDS011;1682;49.286;10.788;2023-07-28T08:37:10;4.70;;;4.30;;
3337;SDS011;1682;49.286;10.788;2023-07-28T08:39:58;4.87;;;4.47;;
3337;SDS011;1682;49.286;10.788;2023-07-28T08:42:46;5.90;;;5.40;;
3337;SDS011;1682;49.286;10.788;2023-07-28T08:45:36;3.40;;;3.10;;
3337;SDS011;1682;49.286;10.788;2023-07-28T08:48:24;3.83;;;3.53;;
3337;SDS011;1682;49.286;10.788;2023-07-28T08:51:11;4.00;;;3.10;;
3337;SDS011;1682;49.286;10.788;2023-07-28T08:53:59;3.50;;;3.20;;
3337;SDS011;1682;49.286;10.788;2023-07-28T08:56:47;3.37;;;2.70;;
3337;SDS011;1682;49.286;10.788;2023-07-28T08:59:34;4.73;;;3.20;;
3337;SDS011;1682;49.286;10.788;2023-07-28T09:02:28;3.70;;;3.27;;
3337;SDS011;1682;49.286;10.788;2023-07-28T09:05:17;2.57;;;2.47;;
3337;SDS011;1682;49.286;10.788;2023-07-28T09:08:05;2.47;;;2.27;;
3337;SDS011;1682;49.286;10.788;2023-07-28T09:10:52;3.20;;;3.00;;
3337;SDS011;1682;49.286;10.788;2023-07-28T09:13:41;3.30;;;3.00;;
3337;SDS011;1682;49.286;10.788;2023-07-28T09:16:28;2.83;;;2.63;;
3337;SDS011;1682;49.286;10.788;2023-07-28T09:19:19;2.90;;;2.70;;
3337;SDS011;1682;49.286;10.788;2023-07-28T09:22:06;2.60;;;2.40;;
3337;SDS011;1682;49.286;10.788;2023-07-28T09:24:54;2.80;;;2.60;;
3337;SDS011;1682;49.286;10.788;2023-07-28T09:27:49;2.33;;;1.90;;
3337;SDS011;1682;49.286;10.788;2023-07-28T09:30:43;2.63;;;2.43;;
3337;SDS011;1682;49.286;10.788;2023-07-28T09:33:32;2.53;;;2.03;;
3337;SDS011;1682;49.286;10.788;2023-07-28T09:36:21;1.93;;;1.70;;
3337;SDS011;1682;49.286;10.788;2023-07-28T09:39:10;2.47;;;1.80;;
3337;SDS011;1682;49.286;10.788;2023-07-28T09:41:58;2.70;;;2.30;;
3337;SDS011;1682;49.286;10.788;2023-07-28T09:44:47;2.10;;;1.90;;
3337;SDS011;1682;49.286;10.788;2023-07-28T09:47:34;4.10;;;2.17;;
3337;SDS011;1682;49.286;10.788;2023-07-28T09:50:22;2.73;;;1.97;;
3337;SDS011;1682;49.286;10.788;2023-07-28T09:53:12;3.00;;;2.20;;
3337;SDS011;1682;49.286;10.788;2023-07-28T09:56:00;1.70;;;1.60;;
3337;SDS011;1682;49.286;10.788;2023-07-28T09:58:49;2.43;;;1.70;;
3337;SDS011;1682;49.286;10.788;2023-07-28T10:01:37;1.67;;;1.57;;
3337;SDS011;1682;49.286;10.788;2023-07-28T10:04:24;4.40;;;2.07;;
3337;SDS011;1682;49.286;10.788;2023-07-28T10:07:12;4.97;;;1.80;;
3337;SDS011;1682;49.286;10.788;2023-07-28T10:10:01;1.70;;;1.60;;
3337;SDS011;1682;49.286;10.788;2023-07-28T10:12:53;2.37;;;1.47;;
3337;SDS011;1682;49.286;10.788;2023-07-28T10:15:41;1.90;;;1.80;;
3337;SDS011;1682;49.286;10.788;2023-07-28T10:18:29;1.83;;;1.73;;
3337;SDS011;1682;49.286;10.788;2023-07-28T10:21:18;1.67;;;1.57;;
3337;SDS011;1682;49.286;10.788;2023-07-28T10:24:05;1.93;;;1.53;;
3337;SDS011;1682;49.286;10.788;2023-07-28T10:26:55;1.77;;;1.67;;
3337;SDS011;1682;49.286;10.788;2023-07-28T10:29:54;1.83;;;1.73;;
3337;SDS011;1682;49.286;10.788;2023-07-28T10:32:43;1.43;;;1.33;;
3337;SDS011;1682;49.286;10.788;2023-07-28T10:35:31;1.43;;;1.33;;
3337;SDS011;1682;49.286;10.788;2023-07-28T10:38:29;1.37;;;1.27;;
3337;SDS011;1682;49.286;10.788;2023-07-28T10:41:17;1.70;;;1.60;;
3337;SDS011;1682;49.286;10.788;2023-07-28T10:44:06;1.83;;;1.73;;
3337;SDS011;1682;49.286;10.788;2023-07-28T10:46:54;1.37;;;1.27;;
3337;SDS011;1682;49.286;10.788;2023-07-28T10:49:42;1.60;;;1.50;;
3337;SDS011;1682;49.286;10.788;2023-07-28T10:52:30;1.53;;;1.43;;
3337;SDS011;1682;49.286;10.788;2023-07-28T10:55:18;1.33;;;1.23;;
3337;SDS011;1682;49.286;10.788;2023-07-28T10:58:05;1.30;;;1.20;;
3337;SDS011;1682;49.286;10.788;2023-07-28T11:00:54;1.10;;;1.00;;
3337;SDS011;1682;49.286;10.788;2023-07-28T11:03:42;0.97;;;0.97;;
3337;SDS011;1682;49.286;10.788;2023-07-28T11:06:30;1.57;;;1.00;;
3337;SDS011;1682;49.286;10.788;2023-07-28T11:09:18;1.00;;;0.90;;
3337;SDS011;1682;49.286;10.788;2023-07-28T11:12:08;2.40;;;1.80;;
3337;SDS011;1682;49.286;10.788;2023-07-28T11:14:56;5.73;;;4.60;;
3337;SDS011;1682;49.286;10.788;2023-07-28T11:17:45;1.57;;;0.80;;
3337;SDS011;1682;49.286;10.788;2023-07-28T11:20:33;1.50;;;1.40;;
3337;SDS011;1682;49.286;10.788;2023-07-28T11:23:21;4.17;;;1.60;;
3337;SDS011;1682;49.286;10.788;2023-07-28T11:26:08;1.80;;;1.70;;
3337;SDS011;1682;49.286;10.788;2023-07-28T11:28:57;1.77;;;1.67;;
3337;SDS011;1682;49.286;10.788;2023-07-28T11:31:47;2.43;;;2.23;;
3337;SDS011;1682;49.286;10.788;2023-07-28T11:34:36;1.37;;;1.27;;
3337;SDS011;1682;49.286;10.788;2023-07-28T11:37:27;3.20;;;3.00;;
3337;SDS011;1682;49.286;10.788;2023-07-28T11:40:14;1.67;;;1.57;;
3337;SDS011;1682;49.286;10.788;2023-07-28T11:43:03;1.87;;;1.47;;
3337;SDS011;1682;49.286;10.788;2023-07-28T11:45:51;1.17;;;1.07;;
3337;SDS011;1682;49.286;10.788;2023-07-28T11:48:38;1.40;;;1.30;;
3337;SDS011;1682;49.286;10.788;2023-07-28T11:51:27;1.30;;;1.20;;
3337;SDS011;1682;49.286;10.788;2023-07-28T11:54:15;4.20;;;2.37;;
3337;SDS011;1682;49.286;10.788;2023-07-28T11:57:07;3.03;;;1.43;;
3337;SDS011;1682;49.286;10.788;2023-07-28T11:59:55;1.53;;;1.43;;
3337;SDS011;1682;49.286;10.788;2023-07-28T12:02:42;7.63;;;6.90;;
3337;SDS011;1682;49.286;10.788;2023-07-28T12:05:30;1.30;;;1.20;;
3337;SDS011;1682;49.286;10.788;2023-07-28T12:11:23;1.90;;;1.80;;
3337;SDS011;1682;49.286;10.788;2023-07-28T12:14:10;1.30;;;1.20;;
3337;SDS011;1682;49.286;10.788;2023-07-28T12:16:58;1.90;;;1.80;;
3337;SDS011;1682;49.286;10.788;2023-07-28T12:19:57;2.70;;;1.50;;
3337;SDS011;1682;49.286;10.788;2023-07-28T12:22:45;1.67;;;1.40;;
3337;SDS011;1682;49.286;10.788;2023-07-28T12:25:33;1.73;;;1.63;;
3337;SDS011;1682;49.286;10.788;2023-07-28T12:28:23;2.60;;;2.40;;
3337;SDS011;1682;49.286;10.788;2023-07-28T12:31:10;3.03;;;2.83;;
3337;SDS011;1682;49.286;10.788;2023-07-28T12:33:58;1.83;;;1.10;;
3337;SDS011;1682;49.286;10.788;2023-07-28T12:36:45;1.70;;;1.50;;
3337;SDS011;1682;49.286;10.788;2023-07-28T12:39:35;1.73;;;1.40;;
3337;SDS011;1682;49.286;10.788;2023-07-28T12:42:24;2.77;;;1.30;;
3337;SDS011;1682;49.286;10.788;2023-07-28T13:04:44;1.10;;;1.10;;
3337;SDS011;1682;49.286;10.788;2023-07-28T13:07:32;1.35;;;1.25;;
3337;SDS011;1682;49.286;10.788;2023-07-28T13:10:19;0.95;;;0.93;;
3337;SDS011;1682;49.286;10.788;2023-07-28T13:13:07;1.30;;;1.20;;
3337;SDS011;1682;49.286;10.788;2023-07-28T13:15:55;2.33;;;1.17;;
3337;SDS011;1682;49.286;10.788;2023-07-28T13:18:42;1.93;;;1.30;;
3337;SDS011;1682;49.286;10.788;2023-07-28T13:21:31;1.20;;;1.10;;
3337;SDS011;1682;49.286;10.788;2023-07-28T13:24:19;1.30;;;1.20;;
3337;SDS011;1682;49.286;10.788;2023-07-28T13:27:06;1.40;;;1.30;;
3337;SDS011;1682;49.286;10.788;2023-07-28T13:29:54;1.10;;;1.08;;
3337;SDS011;1682;49.286;10.788;2023-07-28T13:32:43;1.40;;;1.30;;
3337;SDS011;1682;49.286;10.788;2023-07-28T13:35:31;1.40;;;1.10;;
3337;SDS011;1682;49.286;10.788;2023-07-28T13:38:20;1.38;;;1.27;;
3337;SDS011;1682;49.286;10.788;2023-07-28T13:41:07;1.40;;;1.30;;
3337;SDS011;1682;49.286;10.788;2023-07-28T13:43:55;1.90;;;1.80;;
3337;SDS011;1682;49.286;10.788;2023-07-28T13:46:42;2.20;;;1.57;;
3337;SDS011;1682;49.286;10.788;2023-07-28T13:49:30;2.23;;;1.50;;
3337;SDS011;1682;49.286;10.788;2023-07-28T13:52:20;2.40;;;1.50;;
3337;SDS011;1682;49.286;10.788;2023-07-28T13:55:09;1.37;;;1.27;;
3337;SDS011;1682;49.286;10.788;2023-07-28T13:57:57;2.10;;;1.20;;
3337;SDS011;1682;49.286;10.788;2023-07-28T14:00:44;0.93;;;0.93;;
3337;SDS011;1682;49.286;10.788;2023-07-28T14:03:32;1.23;;;1.17;;
3337;SDS011;1682;49.286;10.788;2023-07-28T14:06:19;1.63;;;1.20;;
3337;SDS011;1682;49.286;10.788;2023-07-28T14:09:07;1.37;;;1.27;;
3337;SDS011;1682;49.286;10.788;2023-07-28T14:11:56;1.50;;;1.40;;
3337;SDS011;1682;49.286;10.788;2023-07-28T14:14:43;1.60;;;1.50;;
3337;SDS011;1682;49.286;10.788;2023-07-28T14:17:31;2.10;;;1.90;;
3337;SDS011;1682;49.286;10.788;2023-07-28T14:20:18;1.20;;;1.20;;
3337;SDS011;1682;49.286;10.788;2023-07-28T14:23:20;1.30;;;1.20;;
3337;SDS011;1682;49.286;10.788;2023-07-28T14:26:08;4.00;;;1.33;;
3337;SDS011;1682;49.286;10.788;2023-07-28T14:28:56;1.20;;;1.10;;
3337;SDS011;1682;49.286;10.788;2023-07-28T14:31:44;1.50;;;1.40;;
3337;SDS011;1682;49.286;10.788;2023-07-28T14:34:32;3.83;;;1.40;;
3337;SDS011;1682;49.286;10.788;2023-07-28T14:37:19;1.43;;;1.33;;
3337;SDS011;1682;49.286;10.788;2023-07-28T14:40:07;1.70;;;1.60;;
3337;SDS011;1682;49.286;10.788;2023-07-28T14:42:55;1.40;;;1.30;;
3337;SDS011;1682;49.286;10.788;2023-07-28T14:45:44;1.40;;;1.30;;
3337;SDS011;1682;49.286;10.788;2023-07-28T14:48:32;1.47;;;1.37;;
3337;SDS011;1682;49.286;10.788;2023-07-28T14:51:20;1.20;;;1.10;;
3337;SDS011;1682;49.286;10.788;2023-07-28T14:54:08;1.30;;;1.20;;
3337;SDS011;1682;49.286;10.788;2023-07-28T14:56:56;1.30;;;1.03;;
3337;SDS011;1682;49.286;10.788;2023-07-28T14:59:44;1.87;;;1.70;;
3337;SDS011;1682;49.286;10.788;2023-07-28T15:02:33;1.23;;;1.10;;
3337;SDS011;1682;49.286;10.788;2023-07-28T15:05:21;1.50;;;1.40;;
3337;SDS011;1682;49.286;10.788;2023-07-28T15:08:09;2.03;;;0.90;;
3337;SDS011;1682;49.286;10.788;2023-07-28T15:10:56;5.93;;;5.50;;
3337;SDS011;1682;49.286;10.788;2023-07-28T15:13:44;1.70;;;1.60;;
3337;SDS011;1682;49.286;10.788;2023-07-28T15:16:32;1.83;;;1.73;;
3337;SDS011;1682;49.286;10.788;2023-07-28T15:19:20;2.13;;;1.93;;
3337;SDS011;1682;49.286;10.788;2023-07-28T15:22:08;1.83;;;1.73;;
3337;SDS011;1682;49.286;10.788;2023-07-28T15:24:55;2.43;;;2.23;;
3337;SDS011;1682;49.286;10.788;2023-07-28T15:27:43;2.00;;;1.90;;
3337;SDS011;1682;49.286;10.788;2023-07-28T15:30:30;1.33;;;1.23;;
3337;SDS011;1682;49.286;10.788;2023-07-28T15:33:18;3.07;;;1.57;;
3337;SDS011;1682;49.286;10.788;2023-07-28T15:36:07;4.80;;;1.40;;
3337;SDS011;1682;49.286;10.788;2023-07-28T15:38:55;2.00;;;1.90;;
3337;SDS011;1682;49.286;10.788;2023-07-28T15:41:42;2.93;;;2.73;;
3337;SDS011;1682;49.286;10.788;2023-07-28T15:44:30;2.37;;;2.23;;
3337;SDS011;1682;49.286;10.788;2023-07-28T15:47:18;2.30;;;2.10;;
3337;SDS011;1682;49.286;10.788;2023-07-28T15:50:06;1.50;;;1.40;;
3337;SDS011;1682;49.286;10.788;2023-07-28T15:52:55;2.20;;;2.00;;
3337;SDS011;1682;49.286;10.788;2023-07-28T15:55:43;2.47;;;2.27;;
3337;SDS011;1682;49.286;10.788;2023-07-28T15:58:30;2.17;;;1.97;;
3337;SDS011;1682;49.286;10.788;2023-07-28T16:01:18;1.93;;;1.60;;
3337;SDS011;1682;49.286;10.788;2023-07-28T16:04:05;4.90;;;2.40;;
3337;SDS011;1682;49.286;10.788;2023-07-28T16:06:53;2.80;;;2.60;;
3337;SDS011;1682;49.286;10.788;2023-07-28T16:09:42;1.90;;;1.80;;
3337;SDS011;1682;49.286;10.788;2023-07-28T16:12:30;3.07;;;1.97;;
3337;SDS011;1682;49.286;10.788;2023-07-28T16:15:17;1.90;;;1.80;;
3337;SDS011;1682;49.286;10.788;2023-07-28T16:18:05;4.17;;;3.10;;
3337;SDS011;1682;49.286;10.788;2023-07-28T16:20:53;6.60;;;3.10;;
3337;SDS011;1682;49.286;10.788;2023-07-28T16:23:41;3.10;;;2.17;;
3337;SDS011;1682;49.286;10.788;2023-07-28T16:26:30;1.77;;;1.67;;
3337;SDS011;1682;49.286;10.788;2023-07-28T16:29:17;2.60;;;2.40;;
3337;SDS011;1682;49.286;10.788;2023-07-28T16:32:05;2.63;;;2.20;;
3337;SDS011;1682;49.286;10.788;2023-07-28T16:34:53;4.57;;;2.60;;
3337;SDS011;1682;49.286;10.788;2023-07-28T16:37:41;2.40;;;2.20;;
3337;SDS011;1682;49.286;10.788;2023-07-28T16:40:29;2.57;;;2.37;;
3337;SDS011;1682;49.286;10.788;2023-07-28T16:43:18;2.73;;;2.20;;
3337;SDS011;1682;49.286;10.788;2023-07-28T16:46:06;3.33;;;2.40;;
3337;SDS011;1682;49.286;10.788;2023-07-28T16:48:54;5.93;;;2.43;;
3337;SDS011;1682;49.286;10.788;2023-07-28T16:51:42;4.13;;;2.37;;
3337;SDS011;1682;49.286;10.788;2023-07-28T16:54:29;3.80;;;2.63;;
3337;SDS011;1682;49.286;10.788;2023-07-28T16:57:17;2.70;;;2.50;;
3337;SDS011;1682;49.286;10.788;2023-07-28T17:00:06;2.40;;;2.30;;
3337;SDS011;1682;49.286;10.788;2023-07-28T17:02:54;2.90;;;2.30;;
3337;SDS011;1682;49.286;10.788;2023-07-28T17:05:44;4.80;;;2.53;;
3337;SDS011;1682;49.286;10.788;2023-07-28T17:08:31;3.47;;;2.93;;
3337;SDS011;1682;49.286;10.788;2023-07-28T17:11:19;2.73;;;2.43;;
3337;SDS011;1682;49.286;10.788;2023-07-28T17:13:46;4.27;;;2.73;;
3337;SDS011;1682;49.286;10.788;2023-07-28T17:16:14;5.37;;;3.17;;
3337;SDS011;1682;49.286;10.788;2023-07-28T17:18:41;3.27;;;3.07;;
3337;SDS011;1682;49.286;10.788;2023-07-28T17:21:09;3.07;;;2.23;;
3337;SDS011;1682;49.286;10.788;2023-07-28T17:23:36;2.57;;;2.23;;
3337;SDS011;1682;49.286;10.788;2023-07-28T17:26:03;3.83;;;2.70;;
3337;SDS011;1682;49.286;10.788;2023-07-28T17:28:30;2.90;;;2.70;;